sensor_id;sensor_type;location;lat;lon;timestamp;P1;durP1;ratioP1;P2;durP2;ratioP2
12986;SDS011;58897;51.960;5.582;2023-04-01T00:01:00;10.47;;;5.17;;
12986;SDS011;58897;51.960;5.582;2023-04-01T00:03:28;6.70;;;4.17;;
12986;SDS011;58897;51.960;5.582;2023-04-01T00:05:56;8.27;;;4.57;;
12986;SDS011;58897;51.960;5.582;2023-04-01T00:08:24;8.57;;;5.27;;
12986;SDS011;58897;51.960;5.582;2023-04-01T00:10:52;8.23;;;5.20;;
12986;SDS011;58897;51.960;5.582;2023-04-01T00:13:19;9.77;;;5.63;;
12986;SDS011;58897;51.960;5.582;2023-04-01T00:15:48;9.67;;;5.40;;
12986;SDS011;58897;51.960;5.582;2023-04-01T00:18:15;15.77;;;7.73;;
12986;SDS011;58897;51.960;5.582;2023-04-01T00:20:43;11.50;;;5.67;;
12986;SDS011;58897;51.960;5.582;2023-04-01T00:23:11;11.43;;;5.30;;
12986;SDS011;58897;51.960;5.582;2023-04-01T00:25:37;9.03;;;5.10;;
12986;SDS011;58897;51.960;5.582;2023-04-01T00:28:04;9.60;;;6.00;;
12986;SDS011;58897;51.960;5.582;2023-04-01T00:30:30;11.07;;;6.33;;
12986;SDS011;58897;51.960;5.582;2023-04-01T00:32:57;12.83;;;6.27;;
12986;SDS011;58897;51.960;5.582;2023-04-01T00:35:23;11.23;;;6.10;;
12986;SDS011;58897;51.960;5.582;2023-04-01T00:37:50;11.77;;;7.17;;
12986;SDS011;58897;51.960;5.582;2023-04-01T00:40:25;15.80;;;8.17;;
12986;SDS011;58897;51.960;5.582;2023-04-01T00:42:56;11.40;;;6.17;;
12986;SDS011;58897;51.960;5.582;2023-04-01T00:45:33;16.00;;;7.73;;
12986;SDS011;58897;51.960;5.582;2023-04-01T00:48:06;13.10;;;7.07;;
12986;SDS011;58897;51.960;5.582;2023-04-01T00:50:36;21.57;;;7.83;;
12986;SDS011;58897;51.960;5.582;2023-04-01T00:53:08;15.77;;;7.77;;
12986;SDS011;58897;51.960;5.582;2023-04-01T00:55:36;14.23;;;6.50;;
12986;SDS011;58897;51.960;5.582;2023-04-01T00:58:08;15.17;;;7.60;;
12986;SDS011;58897;51.960;5.582;2023-04-01T01:00:41;11.87;;;6.60;;
12986;SDS011;58897;51.960;5.582;2023-04-01T01:03:08;16.93;;;8.20;;
12986;SDS011;58897;51.960;5.582;2023-04-01T01:06:00;16.27;;;8.20;;
12986;SDS011;58897;51.960;5.582;2023-04-01T01:11:23;18.20;;;7.20;;
12986;SDS011;58897;51.960;5.582;2023-04-01T01:17:10;11.57;;;6.33;;
12986;SDS011;58897;51.960;5.582;2023-04-01T01:23:23;14.30;;;6.20;;
12986;SDS011;58897;51.960;5.582;2023-04-01T01:32:03;13.33;;;5.53;;
12986;SDS011;58897;51.960;5.582;2023-04-01T01:35:43;17.20;;;6.13;;
12986;SDS011;58897;51.960;5.582;2023-04-01T01:37:44;14.93;;;5.70;;
12986;SDS011;58897;51.960;5.582;2023-04-01T01:40:13;17.40;;;6.73;;
12986;SDS011;58897;51.960;5.582;2023-04-01T01:42:44;20.47;;;7.23;;
12986;SDS011;58897;51.960;5.582;2023-04-01T01:45:14;18.00;;;7.20;;
12986;SDS011;58897;51.960;5.582;2023-04-01T01:47:44;19.47;;;7.80;;
12986;SDS011;58897;51.960;5.582;2023-04-01T01:50:12;18.27;;;6.83;;
12986;SDS011;58897;51.960;5.582;2023-04-01T01:52:40;20.03;;;7.37;;
12986;SDS011;58897;51.960;5.582;2023-04-01T01:55:22;18.73;;;7.07;;
12986;SDS011;58897;51.960;5.582;2023-04-01T01:58:01;18.80;;;7.30;;
12986;SDS011;58897;51.960;5.582;2023-04-01T02:00:32;20.13;;;7.80;;
12986;SDS011;58897;51.960;5.582;2023-04-01T02:03:01;25.20;;;7.63;;
12986;SDS011;58897;51.960;5.582;2023-04-01T02:05:28;19.23;;;7.60;;
12986;SDS011;58897;51.960;5.582;2023-04-01T02:08:01;17.30;;;6.93;;
12986;SDS011;58897;51.960;5.582;2023-04-01T02:10:30;19.87;;;6.97;;
12986;SDS011;58897;51.960;5.582;2023-04-01T02:13:01;16.00;;;7.27;;
12986;SDS011;58897;51.960;5.582;2023-04-01T02:15:36;15.83;;;7.17;;
12986;SDS011;58897;51.960;5.582;2023-04-01T02:18:07;22.30;;;7.10;;
12986;SDS011;58897;51.960;5.582;2023-04-01T02:20:35;21.17;;;6.87;;
12986;SDS011;58897;51.960;5.582;2023-04-01T02:23:04;14.97;;;5.57;;
12986;SDS011;58897;51.960;5.582;2023-04-01T02:25:35;14.93;;;5.67;;
12986;SDS011;58897;51.960;5.582;2023-04-01T02:28:04;16.10;;;6.77;;
12986;SDS011;58897;51.960;5.582;2023-04-01T02:30:34;13.50;;;4.90;;
12986;SDS011;58897;51.960;5.582;2023-04-01T02:33:04;13.17;;;5.37;;
12986;SDS011;58897;51.960;5.582;2023-04-01T02:35:33;17.70;;;5.10;;
12986;SDS011;58897;51.960;5.582;2023-04-01T02:38:03;16.83;;;5.80;;
12986;SDS011;58897;51.960;5.582;2023-04-01T02:40:40;14.20;;;5.70;;
12986;SDS011;58897;51.960;5.582;2023-04-01T02:43:08;13.60;;;4.60;;
12986;SDS011;58897;51.960;5.582;2023-04-01T02:45:35;11.47;;;4.27;;
12986;SDS011;58897;51.960;5.582;2023-04-01T02:48:02;12.23;;;4.80;;
12986;SDS011;58897;51.960;5.582;2023-04-01T02:50:30;9.00;;;3.93;;
12986;SDS011;58897;51.960;5.582;2023-04-01T02:52:56;12.33;;;4.63;;
12986;SDS011;58897;51.960;5.582;2023-04-01T02:55:23;12.10;;;5.60;;
12986;SDS011;58897;51.960;5.582;2023-04-01T02:57:50;13.20;;;5.40;;
12986;SDS011;58897;51.960;5.582;2023-04-01T03:00:17;15.23;;;6.27;;
12986;SDS011;58897;51.960;5.582;2023-04-01T03:02:43;16.37;;;7.03;;
12986;SDS011;58897;51.960;5.582;2023-04-01T03:05:11;9.27;;;4.00;;
12986;SDS011;58897;51.960;5.582;2023-04-01T03:07:38;9.70;;;4.43;;
12986;SDS011;58897;51.960;5.582;2023-04-01T03:10:05;8.43;;;3.50;;
12986;SDS011;58897;51.960;5.582;2023-04-01T03:12:34;9.63;;;4.10;;
12986;SDS011;58897;51.960;5.582;2023-04-01T03:15:01;9.07;;;4.50;;
12986;SDS011;58897;51.960;5.582;2023-04-01T03:17:36;10.73;;;4.80;;
12986;SDS011;58897;51.960;5.582;2023-04-01T03:20:05;11.17;;;4.53;;
12986;SDS011;58897;51.960;5.582;2023-04-01T03:22:32;10.77;;;5.57;;
12986;SDS011;58897;51.960;5.582;2023-04-01T03:24:59;13.20;;;6.23;;
12986;SDS011;58897;51.960;5.582;2023-04-01T03:27:25;10.30;;;4.70;;
12986;SDS011;58897;51.960;5.582;2023-04-01T03:29:51;11.53;;;6.20;;
12986;SDS011;58897;51.960;5.582;2023-04-01T03:32:18;10.00;;;4.63;;
12986;SDS011;58897;51.960;5.582;2023-04-01T03:34:45;11.87;;;5.57;;
12986;SDS011;58897;51.960;5.582;2023-04-01T03:37:11;9.30;;;4.77;;
12986;SDS011;58897;51.960;5.582;2023-04-01T03:39:38;12.47;;;5.60;;
12986;SDS011;58897;51.960;5.582;2023-04-01T03:42:04;14.27;;;5.70;;
12986;SDS011;58897;51.960;5.582;2023-04-01T03:44:33;13.30;;;6.70;;
12986;SDS011;58897;51.960;5.582;2023-04-01T03:47:00;12.53;;;5.37;;
12986;SDS011;58897;51.960;5.582;2023-04-01T03:49:27;7.67;;;4.97;;
12986;SDS011;58897;51.960;5.582;2023-04-01T03:51:53;12.07;;;5.60;;
12986;SDS011;58897;51.960;5.582;2023-04-01T03:54:20;13.53;;;6.43;;
12986;SDS011;58897;51.960;5.582;2023-04-01T03:56:48;11.00;;;5.30;;
12986;SDS011;58897;51.960;5.582;2023-04-01T03:59:15;13.53;;;5.77;;
12986;SDS011;58897;51.960;5.582;2023-04-01T04:01:41;13.60;;;5.87;;
12986;SDS011;58897;51.960;5.582;2023-04-01T04:04:10;10.77;;;6.30;;
12986;SDS011;58897;51.960;5.582;2023-04-01T04:06:39;11.27;;;5.03;;
12986;SDS011;58897;51.960;5.582;2023-04-01T04:09:06;10.70;;;5.73;;
12986;SDS011;58897;51.960;5.582;2023-04-01T04:11:32;9.50;;;5.73;;
12986;SDS011;58897;51.960;5.582;2023-04-01T04:13:59;8.00;;;5.23;;
12986;SDS011;58897;51.960;5.582;2023-04-01T04:16:26;8.90;;;5.63;;
12986;SDS011;58897;51.960;5.582;2023-04-01T04:18:52;11.10;;;6.60;;
12986;SDS011;58897;51.960;5.582;2023-04-01T04:21:19;12.63;;;7.53;;
12986;SDS011;58897;51.960;5.582;2023-04-01T04:23:45;12.57;;;6.93;;
12986;SDS011;58897;51.960;5.582;2023-04-01T04:26:13;11.33;;;6.50;;
12986;SDS011;58897;51.960;5.582;2023-04-01T04:28:40;13.20;;;7.47;;
12986;SDS011;58897;51.960;5.582;2023-04-01T04:31:07;10.50;;;5.93;;
12986;SDS011;58897;51.960;5.582;2023-04-01T04:33:34;12.53;;;7.03;;
12986;SDS011;58897;51.960;5.582;2023-04-01T04:36:01;10.47;;;6.30;;
12986;SDS011;58897;51.960;5.582;2023-04-01T04:38:29;10.83;;;6.50;;
12986;SDS011;58897;51.960;5.582;2023-04-01T04:40:57;14.00;;;6.87;;
12986;SDS011;58897;51.960;5.582;2023-04-01T04:43:24;13.33;;;7.10;;
12986;SDS011;58897;51.960;5.582;2023-04-01T04:45:51;10.57;;;5.93;;
12986;SDS011;58897;51.960;5.582;2023-04-01T04:48:18;10.90;;;5.93;;
12986;SDS011;58897;51.960;5.582;2023-04-01T04:50:49;9.27;;;5.87;;
12986;SDS011;58897;51.960;5.582;2023-04-01T04:53:17;11.30;;;6.40;;
12986;SDS011;58897;51.960;5.582;2023-04-01T04:55:45;11.07;;;6.13;;
12986;SDS011;58897;51.960;5.582;2023-04-01T04:58:13;9.47;;;5.67;;
12986;SDS011;58897;51.960;5.582;2023-04-01T05:00:40;10.27;;;5.97;;
12986;SDS011;58897;51.960;5.582;2023-04-01T05:03:07;12.50;;;6.33;;
12986;SDS011;58897;51.960;5.582;2023-04-01T05:05:35;11.60;;;6.17;;
12986;SDS011;58897;51.960;5.582;2023-04-01T05:08:01;10.77;;;5.73;;
12986;SDS011;58897;51.960;5.582;2023-04-01T05:10:28;8.70;;;5.57;;
12986;SDS011;58897;51.960;5.582;2023-04-01T05:12:55;9.33;;;5.07;;
12986;SDS011;58897;51.960;5.582;2023-04-01T05:15:22;9.53;;;5.80;;
12986;SDS011;58897;51.960;5.582;2023-04-01T05:17:48;10.70;;;5.57;;
12986;SDS011;58897;51.960;5.582;2023-04-01T05:20:15;10.10;;;5.67;;
12986;SDS011;58897;51.960;5.582;2023-04-01T05:22:42;11.20;;;5.77;;
12986;SDS011;58897;51.960;5.582;2023-04-01T05:25:09;10.63;;;5.60;;
12986;SDS011;58897;51.960;5.582;2023-04-01T05:27:36;12.57;;;6.43;;
12986;SDS011;58897;51.960;5.582;2023-04-01T05:30:03;8.97;;;5.00;;
12986;SDS011;58897;51.960;5.582;2023-04-01T05:32:30;8.37;;;5.00;;
12986;SDS011;58897;51.960;5.582;2023-04-01T05:34:57;8.83;;;4.80;;
12986;SDS011;58897;51.960;5.582;2023-04-01T05:37:24;7.17;;;4.00;;
12986;SDS011;58897;51.960;5.582;2023-04-01T05:39:51;7.23;;;4.30;;
12986;SDS011;58897;51.960;5.582;2023-04-01T05:42:17;8.33;;;4.53;;
12986;SDS011;58897;51.960;5.582;2023-04-01T05:44:44;7.80;;;4.07;;
12986;SDS011;58897;51.960;5.582;2023-04-01T05:47:11;7.73;;;4.00;;
12986;SDS011;58897;51.960;5.582;2023-04-01T05:49:39;6.50;;;3.47;;
12986;SDS011;58897;51.960;5.582;2023-04-01T05:52:06;5.70;;;2.60;;
12986;SDS011;58897;51.960;5.582;2023-04-01T05:54:32;5.10;;;2.73;;
12986;SDS011;58897;51.960;5.582;2023-04-01T05:56:59;5.20;;;2.93;;
12986;SDS011;58897;51.960;5.582;2023-04-01T05:59:26;5.60;;;3.00;;
12986;SDS011;58897;51.960;5.582;2023-04-01T06:01:52;5.40;;;2.33;;
12986;SDS011;58897;51.960;5.582;2023-04-01T06:04:20;7.90;;;4.03;;
12986;SDS011;58897;51.960;5.582;2023-04-01T06:06:46;6.97;;;3.40;;
12986;SDS011;58897;51.960;5.582;2023-04-01T06:09:14;7.40;;;3.67;;
12986;SDS011;58897;51.960;5.582;2023-04-01T06:12:00;6.87;;;3.60;;
12986;SDS011;58897;51.960;5.582;2023-04-01T06:17:15;9.07;;;4.80;;
12986;SDS011;58897;51.960;5.582;2023-04-01T06:22:31;5.77;;;3.30;;
12986;SDS011;58897;51.960;5.582;2023-04-01T06:30:43;6.47;;;3.77;;
12986;SDS011;58897;51.960;5.582;2023-04-01T06:36:04;10.00;;;4.27;;
12986;SDS011;58897;51.960;5.582;2023-04-01T06:44:35;7.80;;;4.37;;
12986;SDS011;58897;51.960;5.582;2023-04-01T06:47:27;8.77;;;4.60;;
12986;SDS011;58897;51.960;5.582;2023-04-01T06:53:09;6.67;;;3.67;;
12986;SDS011;58897;51.960;5.582;2023-04-01T06:55:50;10.70;;;5.20;;
12986;SDS011;58897;51.960;5.582;2023-04-01T06:58:23;6.97;;;4.07;;
12986;SDS011;58897;51.960;5.582;2023-04-01T07:00:54;12.10;;;5.33;;
12986;SDS011;58897;51.960;5.582;2023-04-01T07:03:35;10.97;;;5.60;;
12986;SDS011;58897;51.960;5.582;2023-04-01T07:06:08;10.37;;;5.77;;
12986;SDS011;58897;51.960;5.582;2023-04-01T07:08:40;9.40;;;4.63;;
12986;SDS011;58897;51.960;5.582;2023-04-01T07:11:10;11.70;;;5.50;;
12986;SDS011;58897;51.960;5.582;2023-04-01T07:13:45;8.47;;;4.70;;
12986;SDS011;58897;51.960;5.582;2023-04-01T07:16:24;13.27;;;5.47;;
12986;SDS011;58897;51.960;5.582;2023-04-01T07:19:01;8.47;;;4.67;;
12986;SDS011;58897;51.960;5.582;2023-04-01T07:21:34;8.07;;;4.73;;
12986;SDS011;58897;51.960;5.582;2023-04-01T07:24:09;11.87;;;6.57;;
12986;SDS011;58897;51.960;5.582;2023-04-01T07:26:43;11.13;;;5.40;;
12986;SDS011;58897;51.960;5.582;2023-04-01T07:29:11;11.30;;;4.50;;
12986;SDS011;58897;51.960;5.582;2023-04-01T07:31:50;7.83;;;4.37;;
12986;SDS011;58897;51.960;5.582;2023-04-01T07:34:27;6.13;;;3.83;;
12986;SDS011;58897;51.960;5.582;2023-04-01T07:37:02;7.50;;;4.47;;
12986;SDS011;58897;51.960;5.582;2023-04-01T07:39:47;9.23;;;4.73;;
12986;SDS011;58897;51.960;5.582;2023-04-01T07:51:07;5.30;;;2.93;;
12986;SDS011;58897;51.960;5.582;2023-04-01T07:54:03;4.40;;;2.67;;
12986;SDS011;58897;51.960;5.582;2023-04-01T07:59:17;7.80;;;3.53;;
12986;SDS011;58897;51.960;5.582;2023-04-01T08:01:58;9.13;;;2.77;;
12986;SDS011;58897;51.960;5.582;2023-04-01T08:10:22;5.60;;;2.87;;
12986;SDS011;58897;51.960;5.582;2023-04-01T08:21:47;5.23;;;2.90;;
12986;SDS011;58897;51.960;5.582;2023-04-01T08:24:24;5.07;;;2.80;;
12986;SDS011;58897;51.960;5.582;2023-04-01T08:29:59;5.17;;;2.83;;
12986;SDS011;58897;51.960;5.582;2023-04-01T08:32:33;6.70;;;3.23;;
12986;SDS011;58897;51.960;5.582;2023-04-01T08:35:14;6.63;;;3.47;;
12986;SDS011;58897;51.960;5.582;2023-04-01T08:37:55;5.53;;;2.50;;
12986;SDS011;58897;51.960;5.582;2023-04-01T08:40:37;5.70;;;2.90;;
12986;SDS011;58897;51.960;5.582;2023-04-01T08:54:46;7.47;;;3.70;;
12986;SDS011;58897;51.960;5.582;2023-04-01T08:57:45;5.67;;;3.43;;
12986;SDS011;58897;51.960;5.582;2023-04-01T09:05:47;5.73;;;3.10;;
12986;SDS011;58897;51.960;5.582;2023-04-01T09:08:57;8.30;;;4.20;;
12986;SDS011;58897;51.960;5.582;2023-04-01T09:20:06;6.87;;;3.53;;
12986;SDS011;58897;51.960;5.582;2023-04-01T09:39:38;7.53;;;4.23;;
12986;SDS011;58897;51.960;5.582;2023-04-01T09:45:31;8.20;;;4.87;;
12986;SDS011;58897;51.960;5.582;2023-04-01T09:48:24;8.53;;;4.23;;
12986;SDS011;58897;51.960;5.582;2023-04-01T09:51:09;8.67;;;4.63;;
12986;SDS011;58897;51.960;5.582;2023-04-01T10:02:50;10.87;;;5.40;;
12986;SDS011;58897;51.960;5.582;2023-04-01T10:37:09;5.23;;;3.13;;
12986;SDS011;58897;51.960;5.582;2023-04-01T10:45:52;7.73;;;4.20;;
12986;SDS011;58897;51.960;5.582;2023-04-01T11:05:55;8.83;;;4.90;;
12986;SDS011;58897;51.960;5.582;2023-04-01T11:08:43;8.50;;;4.63;;
12986;SDS011;58897;51.960;5.582;2023-04-01T11:11:53;9.27;;;5.17;;
12986;SDS011;58897;51.960;5.582;2023-04-01T11:37:44;6.33;;;4.27;;
12986;SDS011;58897;51.960;5.582;2023-04-01T11:42:52;8.13;;;4.60;;
12986;SDS011;58897;51.960;5.582;2023-04-01T11:56:35;6.73;;;3.80;;
12986;SDS011;58897;51.960;5.582;2023-04-01T12:01:56;6.73;;;3.73;;
12986;SDS011;58897;51.960;5.582;2023-04-01T12:07:14;5.83;;;3.23;;
12986;SDS011;58897;51.960;5.582;2023-04-01T12:20:51;3.43;;;1.90;;
12986;SDS011;58897;51.960;5.582;2023-04-01T12:23:36;4.73;;;1.93;;
12986;SDS011;58897;51.960;5.582;2023-04-01T12:29:07;5.47;;;2.60;;
12986;SDS011;58897;51.960;5.582;2023-04-01T12:42:35;6.27;;;2.40;;
12986;SDS011;58897;51.960;5.582;2023-04-01T12:48:03;6.23;;;2.60;;
12986;SDS011;58897;51.960;5.582;2023-04-01T12:56:02;4.47;;;2.60;;
12986;SDS011;58897;51.960;5.582;2023-04-01T12:58:41;3.63;;;2.30;;
12986;SDS011;58897;51.960;5.582;2023-04-01T13:01:26;4.33;;;2.53;;
12986;SDS011;58897;51.960;5.582;2023-04-01T13:15:11;6.33;;;2.70;;
12986;SDS011;58897;51.960;5.582;2023-04-01T13:26:04;6.17;;;3.37;;
12986;SDS011;58897;51.960;5.582;2023-04-01T13:28:43;4.00;;;2.63;;
12986;SDS011;58897;51.960;5.582;2023-04-01T13:42:28;6.87;;;4.07;;
12986;SDS011;58897;51.960;5.582;2023-04-01T13:55:35;7.87;;;3.73;;
12986;SDS011;58897;51.960;5.582;2023-04-01T14:03:44;6.90;;;3.97;;
12986;SDS011;58897;51.960;5.582;2023-04-01T14:23:02;10.53;;;6.83;;
12986;SDS011;58897;51.960;5.582;2023-04-01T14:28:33;8.57;;;4.73;;
12986;SDS011;58897;51.960;5.582;2023-04-01T14:42:01;4.90;;;2.80;;
12986;SDS011;58897;51.960;5.582;2023-04-01T14:50:21;5.70;;;3.00;;
12986;SDS011;58897;51.960;5.582;2023-04-01T14:53:11;6.80;;;3.00;;
12986;SDS011;58897;51.960;5.582;2023-04-01T14:58:22;5.77;;;2.87;;
12986;SDS011;58897;51.960;5.582;2023-04-01T15:10:01;5.10;;;3.10;;
12986;SDS011;58897;51.960;5.582;2023-04-01T15:18:24;7.50;;;4.03;;
12986;SDS011;58897;51.960;5.582;2023-04-01T15:21:02;7.63;;;3.17;;
12986;SDS011;58897;51.960;5.582;2023-04-01T15:26:21;6.13;;;3.60;;
12986;SDS011;58897;51.960;5.582;2023-04-01T15:34:24;6.93;;;3.87;;
12986;SDS011;58897;51.960;5.582;2023-04-01T15:42:33;8.07;;;4.47;;
12986;SDS011;58897;51.960;5.582;2023-04-01T15:45:16;5.47;;;3.30;;
12986;SDS011;58897;51.960;5.582;2023-04-01T15:48:01;7.73;;;4.37;;
12986;SDS011;58897;51.960;5.582;2023-04-01T15:50:51;7.70;;;4.90;;
12986;SDS011;58897;51.960;5.582;2023-04-01T15:53:51;5.80;;;3.83;;
12986;SDS011;58897;51.960;5.582;2023-04-01T15:56:44;7.10;;;4.53;;
12986;SDS011;58897;51.960;5.582;2023-04-01T16:10:55;5.77;;;3.50;;
12986;SDS011;58897;51.960;5.582;2023-04-01T16:13:40;7.27;;;3.80;;
12986;SDS011;58897;51.960;5.582;2023-04-01T16:19:07;8.07;;;4.13;;
12986;SDS011;58897;51.960;5.582;2023-04-01T16:21:58;8.03;;;4.57;;
12986;SDS011;58897;51.960;5.582;2023-04-01T16:24:44;6.77;;;4.07;;
12986;SDS011;58897;51.960;5.582;2023-04-01T16:27:36;5.27;;;3.20;;
12986;SDS011;58897;51.960;5.582;2023-04-01T16:30:26;7.33;;;4.27;;
12986;SDS011;58897;51.960;5.582;2023-04-01T16:38:25;5.47;;;3.60;;
12986;SDS011;58897;51.960;5.582;2023-04-01T16:43:39;3.50;;;2.77;;
12986;SDS011;58897;51.960;5.582;2023-04-01T16:54:27;6.10;;;3.90;;
12986;SDS011;58897;51.960;5.582;2023-04-01T16:57:10;5.10;;;3.33;;
12986;SDS011;58897;51.960;5.582;2023-04-01T17:02:42;5.23;;;3.37;;
12986;SDS011;58897;51.960;5.582;2023-04-01T17:05:34;5.47;;;3.33;;
12986;SDS011;58897;51.960;5.582;2023-04-01T17:19:35;5.27;;;3.57;;
12986;SDS011;58897;51.960;5.582;2023-04-01T17:25:09;4.50;;;3.23;;
12986;SDS011;58897;51.960;5.582;2023-04-01T17:30:47;5.67;;;3.47;;
12986;SDS011;58897;51.960;5.582;2023-04-01T17:42:09;6.80;;;4.23;;
12986;SDS011;58897;51.960;5.582;2023-04-01T17:50:23;6.53;;;4.07;;
12986;SDS011;58897;51.960;5.582;2023-04-01T17:55:42;7.43;;;4.20;;
12986;SDS011;58897;51.960;5.582;2023-04-01T18:01:05;5.57;;;3.70;;
12986;SDS011;58897;51.960;5.582;2023-04-01T18:04:07;8.40;;;5.10;;
12986;SDS011;58897;51.960;5.582;2023-04-01T18:12:16;6.53;;;4.23;;
12986;SDS011;58897;51.960;5.582;2023-04-01T18:23:03;6.70;;;4.07;;
12986;SDS011;58897;51.960;5.582;2023-04-01T18:25:41;7.30;;;4.63;;
12986;SDS011;58897;51.960;5.582;2023-04-01T18:33:30;5.57;;;3.70;;
12986;SDS011;58897;51.960;5.582;2023-04-01T18:36:21;5.47;;;4.00;;
12986;SDS011;58897;51.960;5.582;2023-04-01T18:39:11;5.23;;;3.73;;
12986;SDS011;58897;51.960;5.582;2023-04-01T18:44:47;6.37;;;3.97;;
12986;SDS011;58897;51.960;5.582;2023-04-01T18:47:25;6.30;;;4.53;;
12986;SDS011;58897;51.960;5.582;2023-04-01T18:50:22;5.90;;;3.50;;
12986;SDS011;58897;51.960;5.582;2023-04-01T18:52:56;6.60;;;3.87;;
12986;SDS011;58897;51.960;5.582;2023-04-01T18:55:42;5.70;;;3.87;;
12986;SDS011;58897;51.960;5.582;2023-04-01T19:03:35;6.33;;;4.17;;
12986;SDS011;58897;51.960;5.582;2023-04-01T19:06:16;9.30;;;5.03;;
12986;SDS011;58897;51.960;5.582;2023-04-01T19:08:47;8.40;;;4.87;;
12986;SDS011;58897;51.960;5.582;2023-04-01T19:11:20;6.63;;;4.57;;
12986;SDS011;58897;51.960;5.582;2023-04-01T19:16:50;6.63;;;4.27;;
12986;SDS011;58897;51.960;5.582;2023-04-01T19:25:38;7.30;;;4.80;;
12986;SDS011;58897;51.960;5.582;2023-04-01T19:31:02;6.30;;;4.10;;
12986;SDS011;58897;51.960;5.582;2023-04-01T19:36:40;7.23;;;4.73;;
12986;SDS011;58897;51.960;5.582;2023-04-01T19:39:40;8.27;;;4.53;;
12986;SDS011;58897;51.960;5.582;2023-04-01T19:48:28;6.83;;;4.37;;
12986;SDS011;58897;51.960;5.582;2023-04-01T19:51:00;7.97;;;4.67;;
12986;SDS011;58897;51.960;5.582;2023-04-01T19:59:53;5.90;;;3.53;;
12986;SDS011;58897;51.960;5.582;2023-04-01T20:02:31;5.87;;;3.87;;
12986;SDS011;58897;51.960;5.582;2023-04-01T20:08:09;6.47;;;3.87;;
12986;SDS011;58897;51.960;5.582;2023-04-01T20:16:06;10.47;;;5.93;;
12986;SDS011;58897;51.960;5.582;2023-04-01T20:18:45;9.87;;;5.43;;
12986;SDS011;58897;51.960;5.582;2023-04-01T20:23:50;7.90;;;5.27;;
12986;SDS011;58897;51.960;5.582;2023-04-01T20:26:24;8.87;;;5.73;;
12986;SDS011;58897;51.960;5.582;2023-04-01T20:29:04;6.63;;;4.23;;
12986;SDS011;58897;51.960;5.582;2023-04-01T20:31:47;9.47;;;5.07;;
12986;SDS011;58897;51.960;5.582;2023-04-01T20:34:51;9.03;;;5.20;;
12986;SDS011;58897;51.960;5.582;2023-04-01T20:40:38;7.60;;;5.03;;
12986;SDS011;58897;51.960;5.582;2023-04-01T20:46:20;10.50;;;6.47;;
12986;SDS011;58897;51.960;5.582;2023-04-01T20:51:54;10.27;;;5.93;;
12986;SDS011;58897;51.960;5.582;2023-04-01T20:57:55;10.33;;;6.33;;
12986;SDS011;58897;51.960;5.582;2023-04-01T21:03:18;9.73;;;6.20;;
12986;SDS011;58897;51.960;5.582;2023-04-01T21:22:27;12.93;;;7.37;;
12986;SDS011;58897;51.960;5.582;2023-04-01T21:25:32;13.77;;;8.07;;
12986;SDS011;58897;51.960;5.582;2023-04-01T21:36:52;9.67;;;6.20;;
12986;SDS011;58897;51.960;5.582;2023-04-01T21:45:16;12.53;;;6.83;;
12986;SDS011;58897;51.960;5.582;2023-04-01T21:50:43;12.07;;;6.80;;
12986;SDS011;58897;51.960;5.582;2023-04-01T22:05:04;8.23;;;5.27;;
12986;SDS011;58897;51.960;5.582;2023-04-01T22:07:44;9.70;;;5.80;;
12986;SDS011;58897;51.960;5.582;2023-04-01T22:13:23;10.57;;;6.17;;
12986;SDS011;58897;51.960;5.582;2023-04-01T22:21:05;14.07;;;7.53;;
12986;SDS011;58897;51.960;5.582;2023-04-01T22:26:27;12.37;;;7.90;;
12986;SDS011;58897;51.960;5.582;2023-04-01T22:29:09;12.30;;;6.80;;
12986;SDS011;58897;51.960;5.582;2023-04-01T22:31:52;11.60;;;6.70;;
12986;SDS011;58897;51.960;5.582;2023-04-01T22:35:12;12.80;;;7.43;;
12986;SDS011;58897;51.960;5.582;2023-04-01T22:37:38;12.57;;;6.70;;
12986;SDS011;58897;51.960;5.582;2023-04-01T22:45:47;12.80;;;7.10;;
12986;SDS011;58897;51.960;5.582;2023-04-01T22:50:54;12.17;;;6.70;;
12986;SDS011;58897;51.960;5.582;2023-04-01T22:56:15;12.63;;;7.10;;
12986;SDS011;58897;51.960;5.582;2023-04-01T22:58:59;10.13;;;6.30;;
12986;SDS011;58897;51.960;5.582;2023-04-01T23:01:58;10.43;;;6.10;;
12986;SDS011;58897;51.960;5.582;2023-04-01T23:04:32;14.17;;;8.03;;
12986;SDS011;58897;51.960;5.582;2023-04-01T23:07:18;9.80;;;6.30;;
12986;SDS011;58897;51.960;5.582;2023-04-01T23:09:55;11.63;;;6.40;;
12986;SDS011;58897;51.960;5.582;2023-04-01T23:12:25;14.83;;;7.93;;
12986;SDS011;58897;51.960;5.582;2023-04-01T23:14:52;11.30;;;7.03;;
12986;SDS011;58897;51.960;5.582;2023-04-01T23:20:27;14.83;;;8.27;;
12986;SDS011;58897;51.960;5.582;2023-04-01T23:25:45;14.33;;;7.33;;
12986;SDS011;58897;51.960;5.582;2023-04-01T23:30:59;12.40;;;7.97;;
12986;SDS011;58897;51.960;5.582;2023-04-01T23:33:28;12.23;;;8.20;;
12986;SDS011;58897;51.960;5.582;2023-04-01T23:36:00;10.07;;;6.90;;
12986;SDS011;58897;51.960;5.582;2023-04-01T23:38:38;17.97;;;9.53;;
12986;SDS011;58897;51.960;5.582;2023-04-01T23:41:18;12.77;;;7.67;;
12986;SDS011;58897;51.960;5.582;2023-04-01T23:43:55;14.77;;;7.87;;
12986;SDS011;58897;51.960;5.582;2023-04-01T23:46:22;16.43;;;9.40;;
12986;SDS011;58897;51.960;5.582;2023-04-01T23:48:51;15.83;;;8.00;;
12986;SDS011;58897;51.960;5.582;2023-04-01T23:54:17;14.50;;;8.07;;
12986;SDS011;58897;51.960;5.582;2023-04-01T23:56:54;11.83;;;6.97;;
12986;SDS011;58897;51.960;5.582;2023-04-01T23:59:23;15.37;;;8.63;;
